createdAt,value
2018-03-15T00:00:34.673Z,100628
2018-03-15T00:02:17.773Z,100624
2018-03-15T00:04:01.266Z,100634
2018-03-15T00:05:44.371Z,100624
2018-03-15T00:07:27.497Z,100623
2018-03-15T00:09:10.709Z,100620
2018-03-15T00:10:53.824Z,100618
2018-03-15T00:12:36.933Z,100627
2018-03-15T00:14:20.338Z,100615
2018-03-15T00:16:03.494Z,100632
2018-03-15T00:17:46.695Z,100628
2018-03-15T00:19:29.824Z,100614
2018-03-15T00:21:12.938Z,100614
2018-03-15T00:22:56.140Z,100606
2018-03-15T00:24:39.265Z,100608
2018-03-15T00:26:22.497Z,100610
2018-03-15T00:28:05.694Z,100610
2018-03-15T00:29:48.829Z,100616
2018-03-15T00:31:31.936Z,100604
2018-03-15T00:33:15.124Z,100605
2018-03-15T00:34:58.244Z,100602
2018-03-15T00:36:41.359Z,100599
2018-03-15T00:38:24.495Z,100599
2018-03-15T00:40:07.720Z,100602
2018-03-15T00:41:50.825Z,100602
2018-03-15T00:43:33.967Z,100598
2018-03-15T00:45:17.880Z,100591
2018-03-15T00:47:01.006Z,100597
2018-03-15T00:48:44.126Z,100590
2018-03-15T00:50:27.246Z,100583
2018-03-15T00:52:10.372Z,100586
2018-03-15T00:53:54.261Z,100573
2018-03-15T00:55:37.389Z,100574
2018-03-15T00:57:20.505Z,100577
2018-03-15T00:59:03.616Z,100580
2018-03-15T01:00:46.732Z,100578
2018-03-15T01:02:29.952Z,100578
2018-03-15T01:04:13.100Z,100591
2018-03-15T01:05:56.288Z,100576
2018-03-15T01:07:39.412Z,100574
2018-03-15T01:09:22.650Z,100571
2018-03-15T01:11:06.555Z,100568
2018-03-15T01:12:49.677Z,100568
2018-03-15T01:14:32.820Z,100576
2018-03-15T01:16:15.949Z,100567
2018-03-15T01:17:59.827Z,100571
2018-03-15T01:19:42.936Z,100569
2018-03-15T01:21:26.090Z,100561
2018-03-15T01:23:09.196Z,100565
2018-03-15T01:24:52.328Z,100567
2018-03-15T01:26:35.557Z,100560
2018-03-15T01:28:19.040Z,100562
2018-03-15T01:30:02.157Z,100563
2018-03-15T01:31:45.295Z,100559
2018-03-15T01:33:28.537Z,100558
2018-03-15T01:35:12.425Z,100558
2018-03-15T01:36:55.570Z,100553
2018-03-15T01:38:40.180Z,100547
2018-03-15T01:40:23.299Z,100546
2018-03-15T01:42:06.456Z,100552
2018-03-15T01:43:49.573Z,100551
2018-03-15T01:45:32.676Z,100550
2018-03-15T01:47:15.812Z,100536
2018-03-15T01:48:58.926Z,100548
2018-03-15T01:50:42.124Z,100545
2018-03-15T01:52:25.266Z,100541
2018-03-15T01:54:08.485Z,100543
2018-03-15T01:55:51.631Z,100537
2018-03-15T01:57:34.820Z,100534
2018-03-15T01:59:18.037Z,100524
2018-03-15T02:01:01.158Z,100533
2018-03-15T02:02:44.260Z,100539
2018-03-15T02:04:27.397Z,100524
2018-03-15T02:06:11.310Z,100527
2018-03-15T02:07:54.445Z,100522
2018-03-15T02:09:37.563Z,100521
2018-03-15T02:11:20.692Z,100524
2018-03-15T02:13:04.564Z,100525
2018-03-15T02:14:49.442Z,100523
2018-03-15T02:16:32.657Z,100526
2018-03-15T02:18:15.814Z,100520
2018-03-15T02:19:59.748Z,100524
2018-03-15T02:21:43.648Z,100522
2018-03-15T02:23:26.769Z,100529
2018-03-15T02:25:09.901Z,100529
2018-03-15T02:26:53.107Z,100535
2018-03-15T02:28:36.228Z,100528
2018-03-15T02:30:19.358Z,100524
2018-03-15T02:32:03.256Z,100516
2018-03-15T02:33:46.368Z,100522
2018-03-15T02:35:29.493Z,100521
2018-03-15T02:37:12.742Z,100518
2018-03-15T02:38:55.847Z,100502
2018-03-15T02:40:39.069Z,100513
2018-03-15T02:42:22.299Z,100522
2018-03-15T02:44:05.442Z,100520
2018-03-15T02:45:48.560Z,100519
2018-03-15T02:47:31.737Z,100521
2018-03-15T02:49:14.962Z,100508
2018-03-15T02:50:58.173Z,100506
2018-03-15T02:52:42.104Z,100514
2018-03-15T02:54:25.216Z,100518
2018-03-15T02:56:08.316Z,100513
2018-03-15T02:57:51.438Z,100511
2018-03-15T02:59:34.585Z,100520
2018-03-15T03:01:18.482Z,100515
2018-03-15T03:03:01.760Z,100521
2018-03-15T03:04:45.109Z,100511
2018-03-15T03:06:28.263Z,100510
2018-03-15T03:08:11.389Z,100515
2018-03-15T03:09:54.608Z,100511
2018-03-15T03:11:37.728Z,100503
2018-03-15T03:13:21.668Z,100511
2018-03-15T03:15:04.778Z,100514
2018-03-15T03:16:48.666Z,100512
2018-03-15T03:18:31.783Z,100514
2018-03-15T03:20:14.891Z,100527
2018-03-15T03:21:58.020Z,100519
2018-03-15T03:23:41.178Z,100517
2018-03-15T03:25:24.292Z,100520
2018-03-15T03:27:07.440Z,100523
2018-03-15T03:28:50.573Z,100529
2018-03-15T03:30:33.686Z,100522
2018-03-15T03:32:16.830Z,100517
2018-03-15T03:33:59.949Z,100526
2018-03-15T03:35:43.092Z,100514
2018-03-15T03:37:26.229Z,100513
2018-03-15T03:39:10.117Z,100514
2018-03-15T03:40:53.268Z,100514
2018-03-15T03:42:36.394Z,100521
2018-03-15T03:44:20.322Z,100510
2018-03-15T03:46:04.204Z,100510
2018-03-15T03:47:47.369Z,100519
2018-03-15T03:49:30.494Z,100514
2018-03-15T03:51:14.380Z,100507
2018-03-15T03:52:57.507Z,100509
2018-03-15T03:54:40.624Z,100509
2018-03-15T03:56:23.730Z,100509
2018-03-15T03:58:06.848Z,100511
2018-03-15T03:59:49.990Z,100509
2018-03-15T04:01:33.206Z,100514
2018-03-15T04:03:16.345Z,100517
2018-03-15T04:05:00.218Z,100513
2018-03-15T04:06:43.357Z,100510
2018-03-15T04:08:26.489Z,100517
2018-03-15T04:10:09.603Z,100509
2018-03-15T04:11:52.723Z,100515
2018-03-15T04:13:35.849Z,100510
2018-03-15T04:15:19.083Z,100510
2018-03-15T04:17:02.968Z,100515
2018-03-15T04:18:46.113Z,100507
2018-03-15T04:20:29.318Z,100498
2018-03-15T04:22:12.528Z,100505
2018-03-15T04:23:56.351Z,100497
2018-03-15T04:25:39.461Z,100502
2018-03-15T04:27:22.581Z,100505
2018-03-15T04:29:05.708Z,100502
2018-03-15T04:30:48.901Z,100500
2018-03-15T04:32:32.016Z,100514
2018-03-15T04:34:15.176Z,100503
2018-03-15T04:35:58.284Z,100496
2018-03-15T04:37:41.395Z,100492
2018-03-15T04:39:24.516Z,100496
2018-03-15T04:41:07.648Z,100497
2018-03-15T04:42:50.784Z,100489
2018-03-15T04:44:34.692Z,100489
2018-03-15T04:46:17.812Z,100489
2018-03-15T04:48:00.928Z,100490
2018-03-15T04:49:44.070Z,100498
2018-03-15T04:51:27.179Z,100490
2018-03-15T04:53:11.044Z,100489
2018-03-15T04:54:54.246Z,100496
2018-03-15T04:56:38.120Z,100496
2018-03-15T04:58:21.246Z,100490
2018-03-15T05:00:04.474Z,100486
2018-03-15T05:01:47.593Z,100501
2018-03-15T05:03:30.712Z,100494
2018-03-15T05:05:13.867Z,100486
2018-03-15T05:06:57.763Z,100497
2018-03-15T05:08:40.986Z,100533
2018-03-15T05:10:24.129Z,100499
2018-03-15T05:12:08.022Z,100494
2018-03-15T05:13:51.156Z,100501
2018-03-15T05:15:34.305Z,100502
2018-03-15T05:17:18.268Z,100492
2018-03-15T05:19:01.385Z,100491
2018-03-15T05:20:44.508Z,100485
2018-03-15T05:22:27.677Z,100493
2018-03-15T05:24:11.585Z,100491
2018-03-15T05:25:54.819Z,100489
2018-03-15T05:27:37.940Z,100491
2018-03-15T05:29:21.060Z,100489
2018-03-15T05:31:04.172Z,100492
2018-03-15T05:32:47.288Z,100481
2018-03-15T05:34:31.203Z,100489
2018-03-15T05:36:14.341Z,100492
2018-03-15T05:37:57.467Z,100491
2018-03-15T05:39:41.368Z,100503
2018-03-15T05:41:24.477Z,100494
2018-03-15T05:43:07.625Z,100493
2018-03-15T05:44:50.770Z,100492
2018-03-15T05:46:33.888Z,100484
2018-03-15T05:48:17.000Z,100489
2018-03-15T05:50:00.289Z,100485
2018-03-15T05:51:43.412Z,100486
2018-03-15T05:53:26.631Z,100491
2018-03-15T05:55:10.545Z,100497
2018-03-15T05:56:53.760Z,100487
2018-03-15T05:58:36.891Z,100508
2018-03-15T06:00:20.109Z,100511
2018-03-15T06:02:04.157Z,100499
2018-03-15T06:03:47.360Z,100511
2018-03-15T06:05:30.475Z,100500
2018-03-15T06:07:13.595Z,100505
2018-03-15T06:08:56.709Z,100505
2018-03-15T06:10:39.829Z,100509
2018-03-15T06:12:23.164Z,100509
2018-03-15T06:14:07.073Z,100504
2018-03-15T06:15:50.190Z,100505
2018-03-15T06:17:33.355Z,100494
2018-03-15T06:19:16.495Z,100524
2018-03-15T06:20:59.639Z,100519
2018-03-15T06:22:42.786Z,100496
2018-03-15T06:24:26.681Z,100510
2018-03-15T06:26:09.838Z,100517
2018-03-15T06:27:53.752Z,100505
2018-03-15T06:29:36.973Z,100502
2018-03-15T06:31:20.905Z,100511
2018-03-15T06:33:04.052Z,100506
2018-03-15T06:34:47.945Z,100516
2018-03-15T06:36:31.166Z,100506
2018-03-15T06:38:14.272Z,100512
2018-03-15T06:39:57.430Z,100507
2018-03-15T06:41:41.393Z,100510
2018-03-15T06:43:24.533Z,100516
2018-03-15T06:45:07.694Z,100512
2018-03-15T06:46:50.860Z,100502
2018-03-15T06:48:33.988Z,100509
2018-03-15T06:50:17.116Z,100517
2018-03-15T06:52:00.254Z,100519
2018-03-15T06:53:43.384Z,100515
2018-03-15T06:55:27.306Z,100517
2018-03-15T06:57:10.638Z,100519
2018-03-15T06:58:54.569Z,100523
2018-03-15T07:00:37.765Z,100529
2018-03-15T07:02:20.926Z,100524
2018-03-15T07:04:04.793Z,100530
2018-03-15T07:05:47.921Z,100524
2018-03-15T07:07:31.044Z,100518
2018-03-15T07:09:14.186Z,100522
2018-03-15T07:10:57.408Z,100526
2018-03-15T07:12:41.276Z,100546
2018-03-15T07:14:24.391Z,100526
2018-03-15T07:16:07.580Z,100543
2018-03-15T07:17:51.500Z,100526
2018-03-15T07:19:34.620Z,100520
2018-03-15T07:21:17.892Z,100518
2018-03-15T07:23:01.174Z,100527
2018-03-15T07:24:45.079Z,100518
2018-03-15T07:26:28.326Z,100532
2018-03-15T07:28:12.254Z,100522
2018-03-15T07:29:55.360Z,100524
2018-03-15T07:31:38.589Z,100533
2018-03-15T07:33:21.730Z,100529
2018-03-15T07:35:04.849Z,100526
2018-03-15T07:36:48.063Z,100516
2018-03-15T07:38:31.947Z,100522
2018-03-15T07:40:15.092Z,100517
2018-03-15T07:41:58.209Z,100531
2018-03-15T07:43:42.146Z,100519
2018-03-15T07:45:25.345Z,100526
2018-03-15T07:47:09.242Z,100542
2018-03-15T07:48:52.380Z,100543
2018-03-15T07:50:35.488Z,100539
2018-03-15T07:52:18.611Z,100531
2018-03-15T07:54:01.737Z,100529
2018-03-15T07:55:44.973Z,100533
2018-03-15T07:57:28.101Z,100523
2018-03-15T07:59:12.029Z,100526
2018-03-15T08:00:55.247Z,100531
2018-03-15T08:02:38.389Z,100527
2018-03-15T08:04:21.524Z,100524
2018-03-15T08:06:04.680Z,100523
2018-03-15T08:07:47.924Z,100526
2018-03-15T08:09:31.802Z,100519
2018-03-15T08:11:14.913Z,100508
2018-03-15T08:12:58.067Z,100514
2018-03-15T08:14:41.184Z,100516
2018-03-15T08:16:24.293Z,100519
2018-03-15T08:18:07.521Z,100509
2018-03-15T08:20:10.798Z,100522
2018-03-15T08:21:54.065Z,100507
2018-03-15T08:23:38.000Z,100509
2018-03-15T08:25:21.102Z,100508
2018-03-15T08:27:05.012Z,100508
2018-03-15T08:28:48.148Z,100499
2018-03-15T08:30:32.072Z,100495
2018-03-15T08:32:15.298Z,100500
2018-03-15T08:33:58.424Z,100493
2018-03-15T08:35:42.297Z,100494
2018-03-15T08:37:25.433Z,100487
2018-03-15T08:39:08.592Z,100497
2018-03-15T08:40:52.466Z,100487
2018-03-15T08:42:35.608Z,100502
2018-03-15T08:44:18.729Z,100490
2018-03-15T08:46:01.869Z,100482
2018-03-15T08:47:44.993Z,100484
2018-03-15T08:49:28.930Z,100477
2018-03-15T08:51:12.079Z,100484
2018-03-15T08:52:55.228Z,100493
2018-03-15T08:54:38.369Z,100480
2018-03-15T08:56:21.568Z,100476
2018-03-15T08:58:04.693Z,100476
2018-03-15T08:59:47.803Z,100467
2018-03-15T09:01:31.025Z,100473
2018-03-15T09:03:14.263Z,100479
2018-03-15T09:04:57.401Z,100468
2018-03-15T09:06:40.575Z,100467
2018-03-15T09:08:23.800Z,100469
2018-03-15T09:10:06.929Z,100470
2018-03-15T09:11:50.047Z,100468
2018-03-15T09:13:34.714Z,100451
2018-03-15T09:15:18.600Z,100463
2018-03-15T09:17:01.780Z,100440
2018-03-15T09:18:45.008Z,100453
2018-03-15T09:20:28.877Z,100453
2018-03-15T09:22:12.021Z,100445
2018-03-15T09:23:55.133Z,100440
2018-03-15T09:25:38.229Z,100432
2018-03-15T09:27:21.356Z,100441
2018-03-15T09:29:04.535Z,100439
2018-03-15T09:30:47.656Z,100441
2018-03-15T09:32:30.810Z,100449
2018-03-15T09:34:13.970Z,100425
2018-03-15T09:35:57.089Z,100438
2018-03-15T09:37:40.219Z,100433
2018-03-15T09:39:23.487Z,100432
2018-03-15T09:41:07.542Z,100444
2018-03-15T09:42:50.705Z,100443
2018-03-15T09:44:33.956Z,100428
2018-03-15T09:46:17.907Z,100440
2018-03-15T09:48:01.105Z,100442
2018-03-15T09:49:44.320Z,100439
2018-03-15T09:51:27.461Z,100440
2018-03-15T09:53:11.399Z,100441
2018-03-15T09:54:55.301Z,100421
2018-03-15T09:56:38.451Z,100423
2018-03-15T09:58:21.891Z,100422
2018-03-15T10:00:05.097Z,100437
2018-03-15T10:01:48.286Z,100428
2018-03-15T10:03:31.534Z,100414
2018-03-15T10:05:14.717Z,100427
2018-03-15T10:06:57.946Z,100418
2018-03-15T10:08:41.879Z,100403
2018-03-15T10:10:25.831Z,100410
2018-03-15T10:12:09.759Z,100401
2018-03-15T10:13:53.690Z,100396
2018-03-15T10:15:37.592Z,100401
2018-03-15T10:17:20.711Z,100410
2018-03-15T10:19:03.844Z,100400
2018-03-15T10:20:47.080Z,100403
2018-03-15T10:22:30.982Z,100403
2018-03-15T10:24:14.141Z,100405
2018-03-15T10:25:57.341Z,100404
2018-03-15T10:27:40.471Z,100396
2018-03-15T10:29:24.377Z,100407
2018-03-15T10:31:07.488Z,100411
2018-03-15T10:32:56.158Z,100403
2018-03-15T10:34:40.094Z,100405
2018-03-15T10:36:24.036Z,100411
2018-03-15T10:38:07.944Z,100395
2018-03-15T10:39:51.105Z,100393
2018-03-15T10:41:34.241Z,100400
2018-03-15T10:43:17.412Z,100396
2018-03-15T10:45:00.556Z,100403
2018-03-15T10:46:43.693Z,100415
2018-03-15T10:48:26.824Z,100390
2018-03-15T10:50:10.039Z,100392
2018-03-15T10:51:53.163Z,100394
2018-03-15T10:53:36.304Z,100383
2018-03-15T10:55:19.464Z,100398
2018-03-15T10:57:02.614Z,100387
2018-03-15T10:58:45.764Z,100382
2018-03-15T11:00:34.428Z,100383
2018-03-15T11:02:19.295Z,100383
2018-03-15T11:04:08.862Z,100382
2018-03-15T11:08:13.696Z,100393
2018-03-15T11:09:57.607Z,100390
2018-03-15T11:11:40.843Z,100381
2018-03-15T11:13:24.820Z,100382
2018-03-15T11:15:07.996Z,100374
2018-03-15T11:16:52.036Z,100408
2018-03-15T11:18:35.179Z,100372
2018-03-15T11:20:18.369Z,100363
2018-03-15T11:22:02.267Z,100379
2018-03-15T11:23:45.439Z,100369
2018-03-15T11:25:28.541Z,100371
2018-03-15T11:27:12.447Z,100367
2018-03-15T11:28:55.663Z,100362
2018-03-15T11:30:38.801Z,100366
2018-03-15T11:32:22.720Z,100361
2018-03-15T11:34:05.963Z,100362
2018-03-15T11:35:49.860Z,100361
2018-03-15T11:37:33.014Z,100349
2018-03-15T11:39:16.914Z,100356
2018-03-15T11:41:00.167Z,100356
2018-03-15T11:42:44.102Z,100357
2018-03-15T11:44:28.089Z,100362
2018-03-15T11:46:11.968Z,100354
2018-03-15T11:47:55.887Z,100368
2018-03-15T11:49:39.331Z,100366
2018-03-15T11:51:23.221Z,100365
2018-03-15T11:53:06.358Z,100364
2018-03-15T11:54:49.494Z,100381
2018-03-15T11:56:32.700Z,100366
2018-03-15T11:58:15.937Z,100355
2018-03-15T11:59:59.873Z,100348
2018-03-15T12:01:43.810Z,100346
2018-03-15T12:03:26.914Z,100343
2018-03-15T12:05:10.853Z,100344
2018-03-15T12:06:54.788Z,100350
2018-03-15T12:08:38.691Z,100338
2018-03-15T12:10:21.849Z,100346
2018-03-15T12:12:05.757Z,100344
2018-03-15T12:13:48.981Z,100334
2018-03-15T12:15:32.932Z,100342
2018-03-15T12:17:16.885Z,100323
2018-03-15T12:19:00.086Z,100317
2018-03-15T12:20:43.218Z,100319
2018-03-15T12:22:27.100Z,100314
2018-03-15T12:24:10.212Z,100287
2018-03-15T12:25:53.370Z,100286
2018-03-15T12:27:36.505Z,100271
2018-03-15T12:29:20.410Z,100258
2018-03-15T12:31:03.605Z,100280
2018-03-15T12:32:46.766Z,100267
2018-03-15T12:34:30.665Z,100276
2018-03-15T12:36:13.800Z,100272
2018-03-15T12:37:56.921Z,100275
2018-03-15T12:39:40.816Z,100291
2018-03-15T12:41:23.983Z,100288
2018-03-15T12:43:07.127Z,100255
2018-03-15T12:44:50.260Z,100288
2018-03-15T12:46:33.400Z,100291
2018-03-15T12:48:16.522Z,100285
2018-03-15T12:49:59.638Z,100290
2018-03-15T12:51:42.867Z,100290
2018-03-15T12:53:25.976Z,100308
2018-03-15T12:55:09.202Z,100303
2018-03-15T12:56:53.119Z,100289
2018-03-15T12:58:36.237Z,100311
2018-03-15T13:00:19.391Z,100296
2018-03-15T13:02:03.306Z,100294
2018-03-15T13:03:46.420Z,100296
2018-03-15T13:05:29.623Z,100289
2018-03-15T13:07:12.761Z,100298
2018-03-15T13:08:55.898Z,100289
2018-03-15T13:10:39.874Z,100297
2018-03-15T13:12:23.000Z,100296
2018-03-15T13:14:06.156Z,100290
2018-03-15T13:15:49.289Z,100290
2018-03-15T13:17:32.415Z,100295
2018-03-15T13:19:15.533Z,100285
2018-03-15T13:20:58.656Z,100290
2018-03-15T13:22:41.840Z,100295
2018-03-15T13:24:24.997Z,100301
2018-03-15T13:26:08.129Z,100282
2018-03-15T13:27:51.294Z,100288
2018-03-15T13:29:35.215Z,100288
2018-03-15T13:31:18.448Z,100287
2018-03-15T13:33:02.341Z,100278
2018-03-15T13:34:45.509Z,100299
2018-03-15T13:36:29.538Z,100283
2018-03-15T13:38:13.456Z,100292
2018-03-15T13:39:56.701Z,100285
2018-03-15T13:41:40.591Z,100289
2018-03-15T13:43:23.715Z,100293
2018-03-15T13:45:06.857Z,100293
2018-03-15T13:46:50.765Z,100290
2018-03-15T13:48:33.911Z,100289
2018-03-15T13:50:17.818Z,100288
2018-03-15T13:52:01.030Z,100287
2018-03-15T13:53:44.168Z,100289
2018-03-15T13:55:27.401Z,100285
2018-03-15T13:57:11.316Z,100282
2018-03-15T13:58:54.439Z,100285
2018-03-15T14:00:37.665Z,100270
2018-03-15T14:02:20.788Z,100273
2018-03-15T14:04:04.733Z,100257
2018-03-15T14:05:48.646Z,100256
2018-03-15T14:07:31.871Z,100270
2018-03-15T14:09:15.069Z,100248
2018-03-15T14:10:58.300Z,100254
2018-03-15T14:12:41.541Z,100248
2018-03-15T14:14:25.481Z,100243
2018-03-15T14:16:09.399Z,100248
2018-03-15T14:17:53.296Z,100250
2018-03-15T14:19:36.449Z,100251
2018-03-15T14:21:19.824Z,100243
2018-03-15T14:23:02.922Z,100236
2018-03-15T14:24:46.027Z,100242
2018-03-15T14:26:29.503Z,100229
2018-03-15T14:28:12.751Z,100221
2018-03-15T14:29:56.636Z,100232
2018-03-15T14:31:39.805Z,100215
2018-03-15T14:33:23.712Z,100215
2018-03-15T14:35:06.835Z,100212
2018-03-15T14:36:49.965Z,100210
2018-03-15T14:38:33.152Z,100204
2018-03-15T14:40:16.270Z,100197
2018-03-15T14:41:59.423Z,100206
2018-03-15T14:43:43.296Z,100188
2018-03-15T14:45:26.428Z,100199
2018-03-15T14:47:09.569Z,100188
2018-03-15T14:48:52.685Z,100193
2018-03-15T14:50:35.919Z,100189
2018-03-15T14:52:19.859Z,100185
2018-03-15T14:54:03.893Z,100185
2018-03-15T14:55:47.002Z,100181
2018-03-15T14:57:30.152Z,100177
2018-03-15T14:59:13.281Z,100184
2018-03-15T15:00:56.388Z,100194
2018-03-15T15:02:39.549Z,100185
2018-03-15T15:04:22.686Z,100198
2018-03-15T15:06:07.325Z,100181
2018-03-15T15:07:50.464Z,100190
2018-03-15T15:09:33.690Z,100181
2018-03-15T15:11:17.622Z,100182
2018-03-15T15:13:01.555Z,100183
2018-03-15T15:14:45.453Z,100189
2018-03-15T15:16:28.565Z,100187
2018-03-15T15:18:11.687Z,100184
2018-03-15T15:19:54.904Z,100178
2018-03-15T15:21:38.017Z,100184
2018-03-15T15:23:21.188Z,100182
2018-03-15T15:25:05.084Z,100177
2018-03-15T15:26:48.201Z,100192
2018-03-15T15:28:31.348Z,100193
2018-03-15T15:30:15.261Z,100178
2018-03-15T15:31:58.386Z,100181
2018-03-15T15:33:41.519Z,100174
2018-03-15T15:35:25.399Z,100192
2018-03-15T15:37:08.502Z,100179
2018-03-15T15:38:51.629Z,100178
2018-03-15T15:40:34.788Z,100182
2018-03-15T15:42:18.709Z,100192
2018-03-15T15:44:01.828Z,100178
2018-03-15T15:45:44.936Z,100198
2018-03-15T15:47:28.157Z,100192
2018-03-15T15:49:11.805Z,100193
2018-03-15T15:50:54.919Z,100196
2018-03-15T15:52:38.853Z,100179
2018-03-15T15:54:22.756Z,100184
2018-03-15T15:56:05.911Z,100191
2018-03-15T15:57:49.805Z,100201
2018-03-15T15:59:32.925Z,100194
2018-03-15T16:01:16.065Z,100187
2018-03-15T16:02:59.261Z,100184
2018-03-15T16:04:42.490Z,100181
2018-03-15T16:06:25.626Z,100182
2018-03-15T16:08:09.032Z,100188
2018-03-15T16:09:52.154Z,100178
2018-03-15T16:11:35.256Z,100180
2018-03-15T16:13:18.377Z,100185
2018-03-15T16:15:01.558Z,100168
2018-03-15T16:16:44.684Z,100181
2018-03-15T16:18:27.941Z,100184
2018-03-15T16:20:11.817Z,100191
2018-03-15T16:21:54.931Z,100196
2018-03-15T16:23:38.066Z,100189
2018-03-15T16:25:21.171Z,100195
2018-03-15T16:27:04.383Z,100197
2018-03-15T16:28:47.674Z,100189
2018-03-15T16:30:30.858Z,100185
2018-03-15T16:32:14.064Z,100204
2018-03-15T16:33:57.220Z,100195
2018-03-15T16:35:40.352Z,100191
2018-03-15T16:37:24.273Z,100199
2018-03-15T16:39:07.493Z,100201
2018-03-15T16:40:50.617Z,100211
2018-03-15T16:42:34.501Z,100193
2018-03-15T16:44:17.640Z,100200
2018-03-15T16:46:00.769Z,100200
2018-03-15T16:47:44.749Z,100195
2018-03-15T16:49:27.872Z,100200
2018-03-15T16:51:11.025Z,100201
2018-03-15T16:52:54.128Z,100193
2018-03-15T16:54:37.281Z,100204
2018-03-15T16:56:20.406Z,100222
2018-03-15T16:58:04.284Z,100213
2018-03-15T16:59:47.445Z,100239
2018-03-15T17:01:31.388Z,100214
2018-03-15T17:03:14.604Z,100216
2018-03-15T17:04:57.742Z,100221
2018-03-15T17:06:40.901Z,100226
2018-03-15T17:08:24.026Z,100218
2018-03-15T17:10:07.148Z,100238
2018-03-15T17:11:50.266Z,100227
2018-03-15T17:13:33.383Z,100237
2018-03-15T17:15:16.506Z,100240
2018-03-15T17:16:59.728Z,100234
2018-03-15T17:18:42.835Z,100247
2018-03-15T17:20:25.976Z,100243
2018-03-15T17:22:09.853Z,100257
2018-03-15T17:23:53.025Z,100255
2018-03-15T17:25:36.236Z,100269
2018-03-15T17:27:19.370Z,100257
2018-03-15T17:29:03.282Z,100258
2018-03-15T17:30:46.395Z,100250
2018-03-15T17:32:29.517Z,100269
2018-03-15T17:34:12.645Z,100254
2018-03-15T17:35:56.528Z,100264
2018-03-15T17:37:39.642Z,100273
2018-03-15T17:39:22.772Z,100264
2018-03-15T17:41:05.909Z,100254
2018-03-15T17:42:49.079Z,100264
2018-03-15T17:44:32.980Z,100244
2018-03-15T17:46:16.893Z,100278
2018-03-15T17:48:00.022Z,100261
2018-03-15T17:49:43.433Z,100268
2018-03-15T17:51:26.544Z,100277
2018-03-15T17:53:09.690Z,100276
2018-03-15T17:54:53.645Z,100259
2018-03-15T17:56:36.782Z,100254
2018-03-15T17:58:19.946Z,100274
2018-03-15T18:00:03.085Z,100267
2018-03-15T18:01:47.000Z,100262
2018-03-15T18:03:30.119Z,100266
2018-03-15T18:05:13.258Z,100272
2018-03-15T18:06:57.178Z,100262
2018-03-15T18:08:41.078Z,100272
2018-03-15T18:10:24.306Z,100264
2018-03-15T18:12:07.440Z,100252
2018-03-15T18:13:51.380Z,100260
2018-03-15T18:15:34.537Z,100256
2018-03-15T18:17:17.768Z,100258
2018-03-15T18:19:00.896Z,100273
2018-03-15T18:20:44.172Z,100251
2018-03-15T18:22:27.289Z,100247
2018-03-15T18:24:10.472Z,100246
2018-03-15T18:25:53.622Z,100246
2018-03-15T18:27:37.503Z,100249
2018-03-15T18:29:20.626Z,100250
2018-03-15T18:31:03.874Z,100248
2018-03-15T18:32:47.797Z,100242
2018-03-15T18:34:31.016Z,100255
2018-03-15T18:36:14.174Z,100248
2018-03-15T18:37:57.336Z,100258
2018-03-15T18:39:40.478Z,100255
2018-03-15T18:41:23.612Z,100266
2018-03-15T18:43:07.532Z,100262
2018-03-15T18:44:51.466Z,100253
2018-03-15T18:46:34.608Z,100198
2018-03-15T18:48:17.716Z,100252
2018-03-15T18:50:01.642Z,100256
2018-03-15T18:51:45.543Z,100261
2018-03-15T18:53:28.674Z,100253
2018-03-15T18:55:11.803Z,100259
2018-03-15T18:56:55.713Z,100270
2018-03-15T18:58:39.616Z,100247
2018-03-15T19:00:22.746Z,100256
2018-03-15T19:02:06.000Z,100248
2018-03-15T19:03:49.148Z,100249
2018-03-15T19:05:32.330Z,100249
2018-03-15T19:07:15.477Z,100252
2018-03-15T19:08:58.665Z,100259
2018-03-15T19:10:42.558Z,100249
2018-03-15T19:12:25.711Z,100245
2018-03-15T19:14:09.321Z,100243
2018-03-15T19:15:52.444Z,100257
2018-03-15T19:17:35.580Z,100246
2018-03-15T19:19:18.706Z,100250
2018-03-15T19:21:02.637Z,100252
2018-03-15T19:22:46.558Z,100246
2018-03-15T19:24:29.686Z,100247
2018-03-15T19:26:12.833Z,100263
2018-03-15T19:27:55.961Z,100260
2018-03-15T19:29:39.100Z,100247
2018-03-15T19:31:22.262Z,100254
2018-03-15T19:33:06.193Z,100260
2018-03-15T19:34:50.134Z,100255
2018-03-15T19:36:34.068Z,100254
2018-03-15T19:38:17.213Z,100254
2018-03-15T19:40:00.374Z,100269
2018-03-15T19:41:43.618Z,100257
2018-03-15T19:43:27.509Z,100252
2018-03-15T19:45:10.653Z,100257
2018-03-15T19:46:53.800Z,100265
2018-03-15T19:48:37.697Z,100268
2018-03-15T19:50:20.899Z,100283
2018-03-15T19:52:04.060Z,100262
2018-03-15T19:53:47.971Z,100254
2018-03-15T19:55:31.212Z,100265
2018-03-15T19:57:15.134Z,100272
2018-03-15T19:58:58.264Z,100259
2018-03-15T20:00:41.478Z,100268
2018-03-15T20:02:24.628Z,100280
2018-03-15T20:04:07.832Z,100262
2018-03-15T20:05:51.773Z,100244
2018-03-15T20:07:35.807Z,100262
2018-03-15T20:09:19.694Z,100253
2018-03-15T20:11:02.856Z,100251
2018-03-15T20:12:46.776Z,100264
2018-03-15T20:14:30.682Z,100252
2018-03-15T20:16:14.155Z,100249
2018-03-15T20:17:57.303Z,100245
2018-03-15T20:19:40.468Z,100250
2018-03-15T20:21:24.362Z,100250
2018-03-15T20:23:13.155Z,100247
2018-03-15T20:24:57.060Z,100245
2018-03-15T20:26:40.192Z,100235
2018-03-15T20:28:29.026Z,100230
2018-03-15T20:30:12.159Z,100236
2018-03-15T20:31:55.304Z,100240
2018-03-15T20:33:44.844Z,100242
2018-03-15T20:35:28.060Z,100239
2018-03-15T20:37:11.195Z,100239
2018-03-15T20:38:55.103Z,100229
2018-03-15T20:40:43.674Z,100235
2018-03-15T20:42:27.663Z,100232
2018-03-15T20:44:10.833Z,100224
2018-03-15T20:45:59.669Z,100235
2018-03-15T20:47:49.332Z,100226
2018-03-15T20:49:32.471Z,100223
2018-03-15T20:51:15.671Z,100236
2018-03-15T20:52:58.820Z,100237
2018-03-15T20:54:41.960Z,100222
2018-03-15T20:56:25.520Z,100227
2018-03-15T20:58:08.785Z,100242
2018-03-15T20:59:51.937Z,100239
2018-03-15T21:01:35.069Z,100223
2018-03-15T21:03:18.198Z,100225
2018-03-15T21:05:01.346Z,100240
2018-03-15T21:06:44.478Z,100232
2018-03-15T21:08:27.619Z,100230
2018-03-15T21:10:10.760Z,100232
2018-03-15T21:11:53.894Z,100220
2018-03-15T21:13:37.816Z,100220
2018-03-15T21:15:20.948Z,100174
2018-03-15T21:17:04.852Z,100210
2018-03-15T21:18:47.973Z,100222
2018-03-15T21:20:31.132Z,100213
2018-03-15T21:22:14.278Z,100224
2018-03-15T21:23:57.440Z,100218
2018-03-15T21:25:41.377Z,100206
2018-03-15T21:27:25.268Z,100214
2018-03-15T21:29:08.752Z,100210
2018-03-15T21:30:52.651Z,100215
2018-03-15T21:32:35.809Z,100212